Time;durP1;ratioP1;P1;durP2;ratioP2;P2;SDS_P1;SDS_P2;PMS_P1;PMS_P2;Temp;Humidity;BMP_temperature;BMP_pressure;BME280_temperature;BME280_humidity;BME280_pressure;Samples;Min_cycle;Max_cycle;Signal;HPM_P1;HPM_P2
2021/10/22 00:02:02;;;;;;;14.55;5.17;;;;;;;14.46;57.00;98451.48;1703633;84;21123;-68
2021/10/22 00:04:29;;;;;;;8.78;5.12;;;;;;;14.49;56.81;98454.09;1703580;84;21005;-70
2021/10/22 00:06:58;;;;;;;11.70;4.75;;;;;;;14.52;56.67;98453.35;1703169;84;21545;-67
2021/10/22 00:09:24;;;;;;;8.15;4.17;;;;;;;14.56;56.69;98449.27;1703640;84;20933;-68
2021/10/22 00:11:52;;;;;;;14.13;4.30;;;;;;;14.54;56.50;98438.01;1703390;83;20902;-68
2021/10/22 00:14:20;;;;;;;14.63;4.53;;;;;;;14.54;56.55;98435.25;1703186;82;20894;-70
2021/10/22 00:16:47;;;;;;;13.93;4.72;;;;;;;14.56;56.46;98444.55;1703565;83;21493;-68
2021/10/22 00:19:13;;;;;;;10.40;4.40;;;;;;;14.56;56.55;98440.41;1703474;84;21005;-70
2021/10/22 00:21:41;;;;;;;8.10;4.20;;;;;;;14.57;56.53;98431.53;1703398;84;20867;-68
2021/10/22 00:24:07;;;;;;;8.70;4.00;;;;;;;14.57;56.34;98426.02;1703586;84;22100;-68
2021/10/22 00:26:34;;;;;;;11.25;3.98;;;;;;;14.56;56.39;98423.03;1703631;82;21442;-70
2021/10/22 00:29:01;;;;;;;9.28;4.08;;;;;;;14.54;56.42;98418.67;1704728;84;20980;-69
2021/10/22 00:31:29;;;;;;;9.28;3.80;;;;;;;14.53;56.50;98411.56;1705044;84;20854;-69
2021/10/22 00:33:58;;;;;;;9.28;3.83;;;;;;;14.51;56.51;98418.03;1670810;85;20901;-69
2021/10/22 00:36:24;;;;;;;7.78;4.97;;;;;;;14.49;56.39;98412.08;1705310;84;21122;-68
2021/10/22 00:38:52;;;;;;;9.13;3.98;;;;;;;14.50;56.50;98426.69;1669882;85;21156;-68
2021/10/22 00:41:18;;;;;;;7.00;4.12;;;;;;;14.46;56.58;98418.34;1703321;84;20997;-68
2021/10/22 00:43:46;;;;;;;9.90;3.65;;;;;;;14.43;56.54;98430.16;1703561;84;21850;-68
2021/10/22 00:46:12;;;;;;;11.05;4.05;;;;;;;14.42;56.61;98434.66;1703777;84;21497;-68
2021/10/22 00:48:39;;;;;;;11.83;3.67;;;;;;;14.41;56.65;98433.86;1703147;84;21108;-69
2021/10/22 00:51:09;;;;;;;14.23;4.20;;;;;;;14.40;56.71;98432.23;1703709;84;20898;-67
2021/10/22 00:53:41;;;;;;;12.45;3.58;;;;;;;14.41;56.53;98435.80;1703672;84;21446;-67
2021/10/22 00:56:10;;;;;;;8.43;4.30;;;;;;;14.43;56.62;98440.40;1702307;84;20949;-67
2021/10/22 00:58:41;;;;;;;6.47;3.50;;;;;;;14.42;56.63;98447.89;1703865;84;20866;-68
2021/10/22 01:01:09;;;;;;;9.85;3.77;;;;;;;14.43;56.64;98447.30;1704127;84;21175;-68
2021/10/22 01:03:36;;;;;;;10.70;4.35;;;;;;;14.39;56.57;98445.83;1703717;84;20982;-68
2021/10/22 01:06:03;;;;;;;9.18;3.70;;;;;;;14.41;56.48;98454.57;1703913;84;21042;-68
2021/10/22 01:08:32;;;;;;;9.45;4.33;;;;;;;14.42;56.41;98457.55;1703219;84;21073;-71
2021/10/22 01:11:00;;;;;;;10.50;4.00;;;;;;;14.45;56.38;98460.13;1703524;83;20933;-68
2021/10/22 01:13:28;;;;;;;11.95;3.37;;;;;;;14.45;56.19;98466.45;1703632;82;21134;-69
2021/10/22 01:15:55;;;;;;;11.57;3.72;;;;;;;14.47;56.34;98468.27;1703451;83;20934;-67
2021/10/22 01:18:25;;;;;;;7.90;3.85;;;;;;;14.45;56.30;98467.83;1703811;84;20977;-69
2021/10/22 01:21:02;;;;;;;9.93;4.20;;;;;;;14.44;56.34;98474.52;1703499;84;22007;-68
2021/10/22 01:23:28;;;;;;;9.28;3.62;;;;;;;14.42;56.41;98472.73;1642954;86;21567;-68
2021/10/22 01:25:56;;;;;;;11.33;3.87;;;;;;;14.41;56.49;98479.42;1675899;84;21159;-68
2021/10/22 01:28:22;;;;;;;7.95;4.25;;;;;;;14.38;56.56;98480.12;1703535;84;20941;-68
2021/10/22 01:30:49;;;;;;;10.30;4.15;;;;;;;14.36;56.65;98481.07;1703352;84;20984;-67
2021/10/22 01:33:20;;;;;;;8.95;4.28;;;;;;;14.34;56.61;98486.16;1703591;84;20906;-68
2021/10/22 01:35:49;;;;;;;10.05;4.15;;;;;;;14.34;56.78;98488.12;1703426;83;20953;-67
2021/10/22 01:38:20;;;;;;;11.70;4.92;;;;;;;14.29;56.83;98486.46;1703698;83;21161;-68
2021/10/22 01:40:49;;;;;;;11.78;3.95;;;;;;;14.26;57.00;98496.85;1703204;84;20890;-68
2021/10/22 01:43:16;;;;;;;10.55;4.35;;;;;;;14.22;56.99;98504.27;1703857;84;21033;-68
2021/10/22 01:45:43;;;;;;;7.37;3.83;;;;;;;14.18;57.34;98504.78;1703481;84;20942;-68
2021/10/22 01:48:10;;;;;;;14.23;3.90;;;;;;;14.13;57.20;98505.07;1703521;84;20954;-68
2021/10/22 01:50:38;;;;;;;7.67;4.37;;;;;;;14.12;57.20;98510.38;1703559;84;21968;-67
2021/10/22 01:53:05;;;;;;;9.75;4.10;;;;;;;14.09;57.38;98514.66;1703820;84;20989;-68
2021/10/22 01:55:33;;;;;;;7.62;3.47;;;;;;;14.07;57.37;98514.22;1703613;84;20978;-66
2021/10/22 01:58:01;;;;;;;8.93;3.70;;;;;;;14.06;57.38;98518.14;1703520;84;20950;-67
2021/10/22 02:00:29;;;;;;;12.10;3.50;;;;;;;14.04;57.47;98511.39;1703603;84;20941;-67
2021/10/22 02:02:56;;;;;;;8.55;3.62;;;;;;;14.03;57.46;98515.31;1703676;84;21063;-67
2021/10/22 02:05:23;;;;;;;7.90;3.77;;;;;;;14.00;57.57;98510.52;1703472;84;21493;-67
2021/10/22 02:07:50;;;;;;;10.95;3.92;;;;;;;13.99;57.68;98515.23;1703522;84;21032;-67
2021/10/22 02:10:17;;;;;;;8.88;3.55;;;;;;;13.98;57.57;98521.92;1703618;83;20990;-67
2021/10/22 02:12:44;;;;;;;7.87;3.40;;;;;;;13.97;57.57;98518.14;1703049;82;21033;-68
2021/10/22 02:15:10;;;;;;;8.68;3.40;;;;;;;13.96;57.58;98512.41;1703567;84;21144;-68
2021/10/22 02:17:38;;;;;;;4.83;3.12;;;;;;;13.96;57.66;98523.44;1703255;84;20954;-69
2021/10/22 02:20:06;;;;;;;6.60;3.25;;;;;;;13.93;57.79;98524.16;1703703;84;20981;-68
2021/10/22 02:22:33;;;;;;;7.62;3.60;;;;;;;13.88;57.85;98532.95;1703783;84;21497;-70
2021/10/22 02:25:00;;;;;;;15.00;3.95;;;;;;;13.85;57.98;98543.36;1703454;82;21555;-68
2021/10/22 02:27:26;;;;;;;10.93;3.67;;;;;;;13.81;58.08;98541.10;1703256;84;21126;-68
2021/10/22 02:29:54;;;;;;;11.78;3.80;;;;;;;13.77;58.24;98535.28;1668988;85;20948;-69
2021/10/22 02:32:21;;;;;;;5.05;3.30;;;;;;;13.72;58.35;98539.70;1703377;83;20977;-68
2021/10/22 02:34:48;;;;;;;11.85;3.85;;;;;;;13.67;58.54;98538.61;1703544;84;20970;-68
2021/10/22 02:37:15;;;;;;;15.18;4.45;;;;;;;13.64;58.76;98546.22;1703534;84;20902;-68
2021/10/22 02:39:43;;;;;;;9.68;4.15;;;;;;;13.60;58.92;98543.97;1703601;83;21099;-68
2021/10/22 02:42:10;;;;;;;12.33;4.10;;;;;;;13.55;59.09;98555.49;1703481;84;20922;-69
2021/10/22 02:44:37;;;;;;;9.25;3.87;;;;;;;13.51;59.28;98564.26;1703299;84;21005;-69
2021/10/22 02:47:03;;;;;;;12.63;4.05;;;;;;;13.45;59.48;98562.14;1703419;84;20950;-69
2021/10/22 02:49:30;;;;;;;10.82;4.20;;;;;;;13.38;59.76;98564.14;1703606;84;20906;-68
2021/10/22 02:51:58;;;;;;;14.98;3.87;;;;;;;13.31;59.91;98562.59;1703528;84;21232;-68
2021/10/22 02:54:25;;;;;;;11.15;4.25;;;;;;;13.26;60.16;98571.17;1703343;84;20910;-68
2021/10/22 02:56:53;;;;;;;10.70;3.90;;;;;;;13.20;60.35;98572.02;1703463;83;21548;-68
2021/10/22 02:59:21;;;;;;;8.33;3.55;;;;;;;13.14;60.64;98575.36;1703271;84;21770;-68
2021/10/22 03:01:48;;;;;;;14.47;4.08;;;;;;;13.09;60.81;98581.14;1703542;83;20847;-67
2021/10/22 03:04:15;;;;;;;10.08;4.65;;;;;;;13.04;60.98;98587.72;1703823;84;21724;-68
2021/10/22 03:06:42;;;;;;;13.00;4.30;;;;;;;13.00;61.21;98590.16;1703298;84;21005;-69
2021/10/22 03:09:09;;;;;;;11.22;4.58;;;;;;;12.96;61.36;98590.64;1703881;84;20894;-68
2021/10/22 03:11:36;;;;;;;11.75;5.08;;;;;;;12.90;61.60;98574.95;1709044;83;21536;-68
2021/10/22 03:14:03;;;;;;;9.00;5.00;;;;;;;12.85;61.79;98583.48;1723919;81;21056;-68
2021/10/22 03:16:29;;;;;;;13.90;4.72;;;;;;;12.79;61.99;98584.31;1724196;83;21127;-69
2021/10/22 03:18:57;;;;;;;14.55;4.67;;;;;;;12.72;62.24;98587.45;1724129;83;21540;-67
2021/10/22 03:21:24;;;;;;;14.07;4.72;;;;;;;12.65;62.50;98587.29;1724130;83;20937;-67
2021/10/22 03:23:55;;;;;;;9.53;4.95;;;;;;;12.60;62.81;98586.17;1724156;83;20940;-68
2021/10/22 03:26:21;;;;;;;9.80;4.78;;;;;;;12.53;63.14;98588.95;1724142;83;21066;-68
2021/10/22 03:28:48;;;;;;;10.75;4.65;;;;;;;12.48;63.41;98586.45;1724055;83;22418;-68
2021/10/22 03:31:15;;;;;;;9.43;5.20;;;;;;;12.46;63.57;98597.02;1724359;83;20925;-69
2021/10/22 03:33:42;;;;;;;7.22;4.60;;;;;;;12.45;63.71;98594.61;1724302;83;20992;-69
2021/10/22 03:36:09;;;;;;;9.38;4.58;;;;;;;12.42;63.85;98591.98;1724003;83;21468;-69
2021/10/22 03:38:36;;;;;;;10.45;4.90;;;;;;;12.41;63.96;98601.97;1724377;81;21099;-69
2021/10/22 03:41:03;;;;;;;9.00;4.20;;;;;;;12.37;64.07;98602.44;1724688;83;21155;-69
2021/10/22 03:43:33;;;;;;;8.08;4.12;;;;;;;12.33;64.33;98610.59;1723936;83;20905;-69
2021/10/22 03:46:00;;;;;;;10.23;4.70;;;;;;;12.30;64.56;98603.04;1724467;83;20944;-68
2021/10/22 03:48:28;;;;;;;14.23;5.25;;;;;;;12.29;64.74;98610.27;1724064;83;20952;-69
2021/10/22 03:50:55;;;;;;;12.60;5.25;;;;;;;12.29;64.78;98609.70;1724400;81;20987;-70
2021/10/22 03:53:21;;;;;;;10.98;5.03;;;;;;;12.27;64.93;98605.11;1724701;83;22341;-70
2021/10/22 03:55:49;;;;;;;9.63;4.45;;;;;;;12.26;65.04;98613.14;1725668;83;20861;-69
2021/10/22 03:58:18;;;;;;;11.40;4.60;;;;;;;12.24;65.14;98614.87;1725889;83;20941;-69
2021/10/22 04:00:46;;;;;;;10.63;4.45;;;;;;;12.23;65.39;98620.72;1725793;83;21024;-69
2021/10/22 04:03:15;;;;;;;10.82;4.78;;;;;;;12.22;65.38;98619.12;1725718;83;21063;-69
2021/10/22 04:05:44;;;;;;;7.60;4.65;;;;;;;12.20;65.43;98615.34;1726009;83;21180;-69
2021/10/22 04:08:11;;;;;;;10.53;4.50;;;;;;;12.17;65.66;98622.11;1703172;83;20960;-69
2021/10/22 04:10:41;;;;;;;11.90;5.85;;;;;;;12.14;65.92;98624.19;1725731;83;20920;-69
2021/10/22 04:13:06;;;;;;;10.98;5.15;;;;;;;12.10;66.16;98628.81;1725606;81;20885;-69
2021/10/22 04:15:32;;;;;;;8.30;5.22;;;;;;;12.11;66.23;98631.79;1725934;83;21519;-66
2021/10/22 04:18:00;;;;;;;9.50;4.85;;;;;;;12.08;66.31;98639.36;1726073;83;21929;-69
2021/10/22 04:20:28;;;;;;;15.50;5.30;;;;;;;12.03;66.48;98647.84;1725972;83;21055;-69
2021/10/22 04:22:54;;;;;;;8.43;5.03;;;;;;;12.00;66.78;98647.17;1725664;83;20989;-69
2021/10/22 04:25:21;;;;;;;13.13;5.10;;;;;;;11.97;66.95;98639.61;1726008;83;20987;-69
2021/10/22 04:27:48;;;;;;;22.75;5.62;;;;;;;11.93;67.07;98651.87;1725114;81;20905;-70
2021/10/22 04:30:14;;;;;;;12.82;5.62;;;;;;;11.90;67.14;98655.31;1725847;83;21725;-69
2021/10/22 04:32:41;;;;;;;15.00;5.70;;;;;;;11.85;67.38;98667.36;1725867;83;20975;-73
2021/10/22 04:35:08;;;;;;;14.20;5.33;;;;;;;11.81;67.67;98665.06;1725634;83;21548;-69
2021/10/22 04:40:31;;;;;;;15.95;5.08;;;;;;;11.74;68.10;98679.12;1724723;83;21417;-68
2021/10/22 04:43:09;;;;;;;23.85;7.17;;;;;;;11.69;68.33;98676.03;1724263;83;21114;-67
2021/10/22 04:45:38;;;;;;;13.68;6.12;;;;;;;11.66;68.58;98675.92;1723767;83;20858;-64
2021/10/22 04:48:07;;;;;;;12.90;5.50;;;;;;;11.63;68.86;98680.73;1724787;81;21005;-66
2021/10/22 04:50:39;;;;;;;16.48;6.65;;;;;;;11.63;68.90;98690.35;1725984;83;20983;-66
2021/10/22 04:53:03;;;;;;;15.43;5.80;;;;;;;11.59;69.06;98695.16;1725869;83;20960;-66
2021/10/22 04:55:31;;;;;;;11.40;5.67;;;;;;;11.57;69.25;98695.27;1726041;83;21083;-67
2021/10/22 04:57:58;;;;;;;23.83;5.97;;;;;;;11.54;69.32;98695.98;1726195;83;21032;-64
2021/10/22 05:00:25;;;;;;;11.15;5.15;;;;;;;11.50;69.65;98700.56;1726157;83;20992;-66
2021/10/22 05:02:51;;;;;;;12.90;5.70;;;;;;;11.48;69.72;98706.98;1730868;82;20974;-66
2021/10/22 05:05:19;;;;;;;17.40;6.00;;;;;;;11.46;69.95;98707.89;1734745;82;21074;-67
2021/10/22 05:07:46;;;;;;;11.00;6.00;;;;;;;11.46;70.14;98716.13;1699398;83;21026;-67
2021/10/22 05:10:14;;;;;;;17.77;5.60;;;;;;;11.46;70.18;98707.89;1659553;83;20963;-68
2021/10/22 05:12:41;;;;;;;14.90;5.12;;;;;;;11.45;70.32;98707.09;1657304;86;21571;-68
2021/10/22 05:15:09;;;;;;;16.23;5.42;;;;;;;11.46;70.30;98710.64;1676155;84;20958;-68
2021/10/22 05:17:37;;;;;;;11.70;6.08;;;;;;;11.46;70.37;98712.81;1678042;84;20967;-67
2021/10/22 05:20:07;;;;;;;11.97;6.28;;;;;;;11.46;70.43;98716.94;1679760;84;21177;-68
2021/10/22 05:22:35;;;;;;;12.80;5.65;;;;;;;11.46;70.47;98719.69;1679585;83;20987;-66
2021/10/22 05:25:04;;;;;;;13.00;5.05;;;;;;;11.49;70.59;98720.95;1670654;86;21101;-70
2021/10/22 05:27:31;;;;;;;19.00;6.12;;;;;;;11.53;70.54;98730.92;1689404;85;20989;-68
2021/10/22 05:29:57;;;;;;;11.50;5.10;;;;;;;11.57;70.55;98733.19;1703873;84;21060;-68
2021/10/22 05:32:24;;;;;;;11.38;5.22;;;;;;;11.64;70.97;98736.74;1704185;84;21113;-68
2021/10/22 05:34:50;;;;;;;14.50;5.12;;;;;;;11.72;70.53;98741.91;1711229;82;20961;-67
2021/10/22 05:37:18;;;;;;;12.03;5.03;;;;;;;11.78;70.26;98755.12;1716750;82;20933;-66
2021/10/22 05:39:45;;;;;;;15.20;5.70;;;;;;;11.87;70.28;98763.27;1703869;84;21055;-64
2021/10/22 05:42:13;;;;;;;11.88;5.15;;;;;;;11.95;70.02;98769.80;1712451;82;20989;-67
2021/10/22 05:44:39;;;;;;;9.93;5.20;;;;;;;12.02;69.78;98768.08;1729370;82;21133;-66
2021/10/22 05:47:05;;;;;;;13.53;6.33;;;;;;;12.11;69.56;98770.72;1716603;82;21611;-66
2021/10/22 05:49:32;;;;;;;14.68;5.35;;;;;;;12.18;69.08;98758.53;1703853;83;20969;-66
2021/10/22 05:51:59;;;;;;;12.18;5.80;;;;;;;12.26;68.93;98755.44;1703486;84;20910;-68
2021/10/22 05:54:26;;;;;;;12.88;6.62;;;;;;;12.32;68.58;98758.98;1703104;84;21108;-66
2021/10/22 05:56:53;;;;;;;8.00;5.40;;;;;;;12.39;68.30;98757.02;1703593;84;21775;-68
2021/10/22 05:59:19;;;;;;;10.45;5.83;;;;;;;12.44;68.18;98757.59;1703626;84;20898;-65
2021/10/22 06:01:47;;;;;;;11.97;5.70;;;;;;;12.50;67.91;98760.33;1703679;84;20950;-66
2021/10/22 06:04:14;;;;;;;12.98;5.97;;;;;;;12.58;67.98;98761.92;1703798;83;21489;-71
2021/10/22 06:06:44;;;;;;;11.97;5.10;;;;;;;12.67;67.57;98762.02;1703475;83;21025;-66
2021/10/22 06:09:20;;;;;;;9.88;4.78;;;;;;;12.74;67.13;98763.57;1696210;84;21167;-65
2021/10/22 06:11:49;;;;;;;11.55;4.97;;;;;;;12.85;66.51;98758.37;1647456;86;20980;-65
2021/10/22 06:14:18;;;;;;;11.85;5.05;;;;;;;12.96;66.10;98763.62;1676606;84;20993;-69
2021/10/22 06:16:49;;;;;;;9.05;4.70;;;;;;;13.03;65.81;98769.33;1676856;85;20996;-69
2021/10/22 06:19:28;;;;;;;11.48;5.90;;;;;;;13.07;65.68;98770.23;1676755;85;20965;-66
2021/10/22 06:22:08;;;;;;;12.15;6.15;;;;;;;13.05;65.48;98761.52;1687991;82;21875;-68
2021/10/22 06:24:27;;;;;;;10.13;4.78;;;;;;;13.00;65.67;98772.78;1665187;84;21500;-67
2021/10/22 06:26:58;;;;;;;10.53;5.35;;;;;;;12.95;65.73;98777.16;1666963;84;21521;-69
2021/10/22 06:29:30;;;;;;;12.90;5.40;;;;;;;13.01;65.79;98793.67;1665205;85;20904;-67
2021/10/22 06:31:59;;;;;;;10.05;4.60;;;;;;;13.20;65.39;98789.73;1666841;86;20986;-67
2021/10/22 06:34:30;;;;;;;10.78;5.05;;;;;;;13.47;64.72;98789.45;1665536;86;21132;-66
2021/10/22 06:37:03;;;;;;;7.80;4.37;;;;;;;13.93;62.86;98795.35;1642781;86;21525;-67
2021/10/22 06:39:30;;;;;;;13.90;5.55;;;;;;;14.49;60.65;98791.78;1687445;84;21447;-69
2021/10/22 06:41:59;;;;;;;11.68;4.42;;;;;;;14.91;58.16;98797.23;1701794;84;21822;-70
2021/10/22 06:44:32;;;;;;;21.68;4.42;;;;;;;15.02;57.52;98794.13;1701387;84;20913;-67
2021/10/22 06:47:00;;;;;;;11.70;4.70;;;;;;;15.13;57.19;98800.64;1663358;84;21533;-66
2021/10/22 06:49:35;;;;;;;9.18;4.28;;;;;;;15.27;57.10;98805.66;1676788;85;21480;-67
2021/10/22 06:52:07;;;;;;;14.60;4.40;;;;;;;15.59;55.66;98807.70;1676869;85;21445;-69
2021/10/22 06:54:37;;;;;;;11.05;3.98;;;;;;;15.94;54.01;98807.52;1676566;85;21146;-66
2021/10/22 06:57:13;;;;;;;11.50;4.15;;;;;;;16.24;53.48;98809.78;1649625;85;20902;-67
2021/10/22 06:59:42;;;;;;;9.13;3.90;;;;;;;16.67;52.32;98813.25;1664144;86;21149;-64
2021/10/22 07:02:14;;;;;;;9.28;4.03;;;;;;;17.08;50.65;98807.26;1704019;84;20954;-67
2021/10/22 07:04:49;;;;;;;7.40;3.23;;;;;;;17.43;49.01;98804.09;1676180;84;21555;-66
2021/10/22 07:07:18;;;;;;;7.03;3.40;;;;;;;17.74;47.71;98809.81;1675977;84;20953;-64
2021/10/22 07:09:49;;;;;;;5.75;2.95;;;;;;;17.88;45.82;98807.19;1703586;84;21025;-66
2021/10/22 07:12:19;;;;;;;6.40;2.27;;;;;;;17.90;44.78;98813.74;1704264;83;21571;-66
2021/10/22 07:14:57;;;;;;;5.95;2.50;;;;;;;17.91;40.35;98814.72;1701300;83;21417;-66
2021/10/22 07:17:26;;;;;;;4.05;1.87;;;;;;;17.91;41.71;98813.33;1699520;81;20996;-69
2021/10/22 07:19:59;;;;;;;8.55;1.90;;;;;;;17.99;40.89;98814.99;1700781;83;20991;-68
2021/10/22 07:22:34;;;;;;;11.35;1.80;;;;;;;18.01;39.00;98827.11;1721078;83;20925;-68
2021/10/22 07:25:06;;;;;;;5.22;1.90;;;;;;;18.01;38.58;98836.23;1703382;83;20913;-67
2021/10/22 07:27:34;;;;;;;2.55;1.35;;;;;;;18.08;38.39;98834.91;1702315;83;20963;-68
2021/10/22 07:30:03;;;;;;;10.93;1.85;;;;;;;18.17;36.38;98823.48;1737627;82;21118;-66
2021/10/22 07:32:36;;;;;;;8.13;2.02;;;;;;;18.11;36.01;98834.74;1725134;83;20928;-68
2021/10/22 07:35:08;;;;;;;9.95;1.87;;;;;;;17.98;36.05;98827.87;1725575;83;21487;-68
2021/10/22 07:37:38;;;;;;;7.80;2.02;;;;;;;18.05;34.95;98819.61;1702604;83;21028;-70
2021/10/22 07:40:11;;;;;;;3.17;1.40;;;;;;;18.27;35.44;98839.45;1723766;83;20996;-67
2021/10/22 07:42:40;;;;;;;16.73;1.90;;;;;;;18.43;34.56;98837.80;1724046;83;21515;-70
2021/10/22 07:45:10;;;;;;;5.35;1.22;;;;;;;18.31;34.13;98838.89;1726512;81;21015;-69
2021/10/22 07:47:40;;;;;;;7.33;1.55;;;;;;;18.34;34.17;98833.95;1726553;81;20901;-67
2021/10/22 07:50:10;;;;;;;14.13;1.50;;;;;;;18.53;33.77;98844.00;1726547;81;21111;-67
2021/10/22 07:52:43;;;;;;;5.12;1.95;;;;;;;18.65;33.72;98840.15;1702829;83;20956;-67
2021/10/22 07:55:12;;;;;;;7.95;2.30;;;;;;;18.69;34.10;98840.38;1703137;83;20985;-66
2021/10/22 07:57:45;;;;;;;8.00;1.40;;;;;;;18.84;32.85;98848.22;1724970;81;20947;-66
2021/10/22 08:00:14;;;;;;;6.33;1.40;;;;;;;18.85;32.15;98838.70;1725399;81;21052;-66
2021/10/22 08:02:45;;;;;;;4.10;1.40;;;;;;;18.88;32.57;98843.48;1723836;83;21800;-66
2021/10/22 08:05:11;;;;;;;2.87;1.27;;;;;;;19.03;33.07;98838.21;1724296;83;21027;-66
2021/10/22 08:07:45;;;;;;;8.15;1.95;;;;;;;19.26;33.13;98849.63;1724346;83;21035;-66
2021/10/22 08:10:14;;;;;;;7.08;1.85;;;;;;;19.50;32.10;98839.19;1724412;83;20972;-66
2021/10/22 08:12:48;;;;;;;10.28;1.45;;;;;;;19.61;32.29;98846.22;1722458;83;20945;-66
2021/10/22 08:15:20;;;;;;;11.43;1.80;;;;;;;19.80;31.93;98852.81;1702398;84;21217;-67
2021/10/22 08:17:50;;;;;;;3.05;1.30;;;;;;;19.96;31.81;98852.45;1702827;82;20992;-66
2021/10/22 08:20:27;;;;;;;5.22;1.90;;;;;;;20.09;31.38;98854.47;1703252;84;21112;-68
2021/10/22 08:22:59;;;;;;;8.73;1.87;;;;;;;20.18;31.54;98846.33;1669108;84;21072;-67
2021/10/22 08:25:30;;;;;;;12.05;1.95;;;;;;;20.19;31.39;98851.50;1671135;84;21561;-66
2021/10/22 08:28:05;;;;;;;3.12;1.55;;;;;;;20.06;31.20;98841.93;1675999;85;22203;-67
2021/10/22 08:30:36;;;;;;;5.40;1.52;;;;;;;20.02;31.53;98853.66;1676054;85;21003;-66
2021/10/22 08:33:11;;;;;;;5.87;1.60;;;;;;;20.05;31.67;98848.69;1648982;85;21527;-66
2021/10/22 08:35:42;;;;;;;4.92;2.00;;;;;;;20.07;31.32;98857.45;1676473;85;21004;-64
2021/10/22 08:38:11;;;;;;;5.72;1.57;;;;;;;20.07;31.96;98851.28;1686300;84;21489;-68
2021/10/22 08:40:45;;;;;;;4.30;1.30;;;;;;;20.06;30.97;98854.47;1692468;84;21160;-67
2021/10/22 08:43:18;;;;;;;7.83;1.65;;;;;;;19.89;30.85;98858.02;1650151;85;21545;-67
2021/10/22 08:45:53;;;;;;;13.48;1.37;;;;;;;19.89;30.85;98858.02;1676927;85;20913;-64
2021/10/22 08:48:22;;;;;;;11.70;1.92;;;;;;;19.82;30.63;98868.53;1677383;85;20949;-65
2021/10/22 08:51:01;;;;;;;7.33;1.75;;;;;;;19.86;30.98;98854.62;1634731;86;21015;-66
2021/10/22 08:53:32;;;;;;;6.00;1.55;;;;;;;19.76;30.71;98869.52;1671670;84;21024;-69
2021/10/22 08:56:03;;;;;;;6.65;1.67;;;;;;;19.70;30.62;98865.52;1704847;84;20890;-69
2021/10/22 08:58:32;;;;;;;5.03;1.62;;;;;;;19.74;30.67;98848.22;1705169;82;21725;-72
2021/10/22 09:01:03;;;;;;;8.93;2.10;;;;;;;19.78;30.73;98871.91;1705119;84;21001;-77
2021/10/22 09:03:39;;;;;;;10.50;3.45;;;;;;;19.81;29.60;98864.75;1670934;85;20976;-80
2021/10/22 09:06:13;;;;;;;16.85;4.25;;;;;;;19.86;30.17;98872.72;1705394;83;21020;-87
2021/10/22 09:08:42;;;;;;;31.27;4.45;;;;;;;19.96;30.31;98874.15;1671184;85;20877;-86
2021/10/22 09:11:27;;;;;;;19.85;3.47;;;;;;;19.98;29.38;98877.34;1705400;83;20972;-68
2021/10/22 09:14:15;;;;;;;11.30;3.30;;;;;;;19.87;29.61;98874.32;1671932;84;21013;-68
2021/10/22 09:16:47;;;;;;;9.75;3.02;;;;;;;19.84;29.55;98873.71;1693041;84;20985;-66
2021/10/22 09:19:14;;;;;;;11.38;2.75;;;;;;;19.79;30.57;98881.86;1649549;85;21799;-68
2021/10/22 09:21:41;;;;;;;7.53;3.00;;;;;;;19.94;29.48;98876.53;1692352;84;20953;-70
2021/10/22 09:24:15;;;;;;;8.95;4.12;;;;;;;19.92;30.00;98869.76;1673732;85;20916;-66
2021/10/22 09:26:53;;;;;;;9.80;3.95;;;;;;;20.04;29.69;98870.78;1684541;84;21053;-66
2021/10/22 09:29:25;;;;;;;4.47;2.60;;;;;;;20.27;29.92;98873.17;1645917;87;21590;-68
2021/10/22 09:31:52;;;;;;;40.63;4.58;;;;;;;20.66;29.46;98868.44;1642812;86;21155;-70
2021/10/22 09:34:35;;;;;;;12.25;2.33;;;;;;;21.03;28.89;98873.55;1646468;87;20940;-67
2021/10/22 09:37:11;;;;;;;10.28;2.62;;;;;;;21.24;28.98;98862.97;1627991;86;32787;-67
2021/10/22 09:39:39;;;;;;;15.90;3.15;;;;;;;21.36;28.17;98866.71;1671085;85;20929;-67
2021/10/22 09:42:16;;;;;;;16.32;2.45;;;;;;;21.33;27.75;98875.09;1691587;84;20946;-65
2021/10/22 09:44:45;;;;;;;5.67;2.65;;;;;;;21.10;28.80;98877.72;1672438;85;21149;-68
2021/10/22 09:47:19;;;;;;;8.55;2.27;;;;;;;21.09;28.65;98879.52;1691431;84;21001;-68
2021/10/22 09:49:53;;;;;;;13.30;3.70;;;;;;;21.06;28.42;98883.11;1672735;85;20953;-69
2021/10/22 09:52:27;;;;;;;11.43;3.10;;;;;;;20.98;28.19;98878.14;1691780;84;20911;-65
2021/10/22 09:55:15;;;;;;;20.95;3.22;;;;;;;20.84;28.73;98864.21;1647462;85;21049;-67
2021/10/22 09:57:45;;;;;;;7.80;2.50;;;;;;;20.79;28.64;98873.02;1691621;83;20946;-68
2021/10/22 10:00:16;;;;;;;15.00;2.62;;;;;;;20.81;28.64;98872.58;1672611;85;21055;-67
2021/10/22 10:02:42;;;;;;;29.05;3.47;;;;;;;20.85;28.89;98863.02;1691060;84;20986;-66
2021/10/22 10:05:11;;;;;;;5.58;1.82;;;;;;;20.84;28.54;98872.58;1672517;85;20949;-67
2021/10/22 10:07:43;;;;;;;10.32;3.12;;;;;;;20.79;29.01;98875.00;1692017;84;21025;-67
2021/10/22 10:10:12;;;;;;;11.03;2.00;;;;;;;20.93;28.78;98870.17;1672276;85;21151;-68
2021/10/22 10:12:40;;;;;;;10.38;2.15;;;;;;;21.01;28.54;98874.55;1691363;83;21493;-73
2021/10/22 10:15:09;;;;;;;8.38;2.30;;;;;;;20.93;28.17;98877.75;1669757;85;21574;-69
2021/10/22 10:17:49;;;;;;;7.60;2.55;;;;;;;20.82;28.52;98863.81;1703958;82;20954;-69
2021/10/22 10:20:23;;;;;;;9.30;1.75;;;;;;;20.84;28.57;98875.97;1703824;84;21573;-69
2021/10/22 10:22:51;;;;;;;11.35;1.87;;;;;;;20.82;27.95;98868.59;1696353;84;21133;-68
2021/10/22 10:25:22;;;;;;;9.80;2.72;;;;;;;20.81;28.26;98875.38;1659049;86;21011;-67
2021/10/22 10:27:52;;;;;;;16.57;2.12;;;;;;;20.83;28.18;98879.95;1705636;84;20934;-66
2021/10/22 10:30:31;;;;;;;8.18;1.92;;;;;;;20.77;28.33;98889.36;1671032;86;21484;-67
2021/10/22 10:32:58;;;;;;;7.87;1.47;;;;;;;20.84;27.81;98877.36;1705238;83;21484;-67
2021/10/22 10:35:37;;;;;;;5.03;1.45;;;;;;;20.97;27.67;98877.14;1671095;85;21150;-68
2021/10/22 10:38:13;;;;;;;8.15;2.00;;;;;;;21.08;27.89;98877.92;1676354;84;20921;-69
2021/10/22 10:40:37;;;;;;;14.10;2.53;;;;;;;21.02;27.40;98880.33;1670189;84;20921;-71
2021/10/22 10:43:21;;;;;;;6.28;1.90;;;;;;;20.77;27.57;98869.83;1644989;85;21087;-68
2021/10/22 10:45:49;;;;;;;7.00;1.90;;;;;;;20.65;28.37;98878.60;1652504;82;21116;-68
2021/10/22 10:48:18;;;;;;;6.25;1.77;;;;;;;20.78;27.93;98874.21;1705678;82;21205;-67
2021/10/22 10:51:03;;;;;;;12.23;2.27;;;;;;;21.02;28.21;98871.16;1705134;84;20901;-69
2021/10/22 10:53:41;;;;;;;8.75;2.30;;;;;;;21.25;27.12;98881.91;1643778;86;20889;-68
2021/10/22 10:56:27;;;;;;;5.60;1.60;;;;;;;21.31;27.16;98879.69;1677305;84;21013;-68
2021/10/22 10:58:54;;;;;;;5.72;1.72;;;;;;;21.54;26.51;98873.59;1702810;84;21042;-69
2021/10/22 11:01:36;;;;;;;11.53;1.90;;;;;;;21.73;26.35;98871.72;1671041;85;21050;-66
2021/10/22 11:04:04;;;;;;;3.80;1.75;;;;;;;21.97;26.22;98879.75;1700967;84;21766;-68
2021/10/22 11:06:44;;;;;;;8.00;1.70;;;;;;;22.13;25.14;98868.10;1643959;86;21482;-71
2021/10/22 11:09:28;;;;;;;15.78;2.37;;;;;;;21.98;25.38;98875.75;1677322;85;21464;-69
2021/10/22 11:11:59;;;;;;;12.18;2.17;;;;;;;21.71;26.00;98877.52;1642569;87;20960;-67
2021/10/22 11:14:26;;;;;;;16.55;2.30;;;;;;;21.54;26.12;98866.62;1678068;84;21187;-67
2021/10/22 11:16:55;;;;;;;13.48;3.12;;;;;;;21.54;26.00;98869.41;1690209;84;20984;-69
2021/10/22 11:19:33;;;;;;;6.37;2.10;;;;;;;21.59;26.37;98880.77;1707323;84;21429;-67
2021/10/22 11:22:03;;;;;;;5.53;1.30;;;;;;;21.55;26.03;98877.98;1708043;84;20917;-69
2021/10/22 11:24:32;;;;;;;12.98;1.55;;;;;;;21.47;26.03;98878.41;1699819;82;21031;-69
2021/10/22 11:27:13;;;;;;;9.85;2.87;;;;;;;21.46;26.37;98874.03;1717652;82;21152;-68
2021/10/22 11:29:46;;;;;;;13.60;3.05;;;;;;;21.39;26.21;98874.84;1720144;82;21028;-68
2021/10/22 11:32:18;;;;;;;15.08;7.28;;;;;;;21.20;26.95;98878.89;1736582;82;21559;-67
2021/10/22 11:35:02;;;;;;;17.27;7.03;;;;;;;21.24;27.13;98876.12;1737273;82;20932;-66
2021/10/22 11:37:32;;;;;;;5.87;1.57;;;;;;;21.44;27.17;98881.41;1734689;82;20890;-66
2021/10/22 11:40:03;;;;;;;6.53;1.80;;;;;;;21.68;26.38;98882.52;1706287;82;21132;-66
2021/10/22 11:42:33;;;;;;;12.43;1.27;;;;;;;21.75;25.96;98897.25;1705432;82;21096;-68
2021/10/22 11:45:09;;;;;;;8.18;1.65;;;;;;;21.73;26.28;98882.09;1706467;84;20957;-67